Time;durP1;ratioP1;P1;durP2;ratioP2;P2;SDS_P1;SDS_P2;PMS_P1;PMS_P2;Temp;Humidity;BMP_temperature;BMP_pressure;BME280_temperature;BME280_humidity;BME280_pressure;Samples;Min_cycle;Max_cycle;Signal;HPM_P1;HPM_P2
2023/08/11 00:00:36;;;;;;;2.47;1.45;;;22.90;77.20;;;;;;5025353;28;20037;-75
2023/08/11 00:03:05;;;;;;;1.27;1.10;;;22.90;77.10;;;;;;5027686;28;20443;-75
2023/08/11 00:05:33;;;;;;;1.20;1.13;;;22.90;77.10;;;;;;5024569;28;20511;-75
2023/08/11 00:07:58;;;;;;;1.58;1.23;;;22.90;77.00;;;;;;5026748;28;20496;-75
2023/08/11 00:10:25;;;;;;;1.67;0.90;;;22.90;77.10;;;;;;5025505;28;20038;-75
2023/08/11 00:12:51;;;;;;;1.15;1.05;;;22.90;77.10;;;;;;5027919;28;20045;-75
2023/08/11 00:15:18;;;;;;;1.98;0.90;;;22.90;77.20;;;;;;5027360;28;20053;-75
2023/08/11 00:17:43;;;;;;;1.20;1.00;;;22.90;77.10;;;;;;5025834;28;20045;-75
2023/08/11 00:20:09;;;;;;;1.45;1.27;;;22.80;77.10;;;;;;5026663;28;20098;-75
2023/08/11 00:22:37;;;;;;;1.50;0.90;;;22.80;77.10;;;;;;5025416;28;20030;-75
2023/08/11 00:25:02;;;;;;;1.42;0.98;;;22.90;77.20;;;;;;5026439;28;20083;-75
2023/08/11 00:27:28;;;;;;;1.63;1.00;;;22.90;77.20;;;;;;5025363;28;20037;-75
2023/08/11 00:29:54;;;;;;;0.95;0.95;;;22.90;77.30;;;;;;5029269;28;20048;-75
2023/08/11 00:32:20;;;;;;;1.17;0.85;;;22.80;77.10;;;;;;5024590;28;20628;-75
2023/08/11 00:34:47;;;;;;;1.60;1.17;;;22.80;77.10;;;;;;5025935;28;20047;-75
2023/08/11 00:37:13;;;;;;;1.08;0.98;;;22.90;77.20;;;;;;5026074;28;20095;-75
2023/08/11 00:39:38;;;;;;;1.00;1.00;;;22.80;77.10;;;;;;5023416;28;20123;-75
2023/08/11 00:42:05;;;;;;;1.20;1.10;;;22.80;77.20;;;;;;5026558;28;20068;-75
2023/08/11 00:44:31;;;;;;;2.20;1.13;;;22.80;77.20;;;;;;5024686;28;20040;-75
2023/08/11 00:46:56;;;;;;;1.52;1.00;;;22.80;77.10;;;;;;5007373;28;20042;-75
2023/08/11 00:49:23;;;;;;;1.20;0.90;;;22.80;77.10;;;;;;5020750;28;20179;-75
2023/08/11 00:51:48;;;;;;;0.95;0.77;;;22.80;77.10;;;;;;5023828;28;20099;-75
2023/08/11 00:54:14;;;;;;;1.08;0.90;;;22.80;77.80;;;;;;5006331;28;20124;-75
2023/08/11 00:56:44;;;;;;;3.33;1.13;;;22.80;77.10;;;;;;5025142;28;20060;-75
2023/08/11 00:59:14;;;;;;;1.30;1.00;;;22.80;77.20;;;;;;5025696;28;20525;-75
2023/08/11 01:01:40;;;;;;;1.30;0.90;;;22.80;77.10;;;;;;5024704;28;20038;-75
2023/08/11 01:04:07;;;;;;;1.10;1.00;;;22.80;77.10;;;;;;5027078;28;20045;-75
2023/08/11 01:06:46;;;;;;;0.88;0.85;;;22.80;77.10;;;;;;5024434;28;20040;-75
2023/08/11 01:09:23;;;;;;;0.98;0.90;;;22.80;77.10;;;;;;5024449;28;20411;-75
2023/08/11 01:12:04;;;;;;;1.60;1.20;;;22.80;77.10;;;;;;5028280;28;20140;-75
2023/08/11 01:14:30;;;;;;;2.00;0.95;;;22.80;77.10;;;;;;5025290;28;20107;-75
2023/08/11 01:16:55;;;;;;;1.27;1.17;;;22.80;77.10;;;;;;5022380;28;20042;-75
2023/08/11 01:19:28;;;;;;;1.98;0.90;;;22.80;77.10;;;;;;5022137;28;20206;-75
2023/08/11 01:21:55;;;;;;;1.85;0.88;;;22.80;77.10;;;;;;5025772;28;20053;-75
2023/08/11 01:24:20;;;;;;;0.80;0.80;;;22.80;77.10;;;;;;5024611;28;20115;-75
2023/08/11 01:26:46;;;;;;;1.02;0.75;;;22.80;77.10;;;;;;5025994;28;20523;-75
2023/08/11 01:29:11;;;;;;;1.38;0.85;;;22.80;77.10;;;;;;5010019;28;20041;-75
2023/08/11 01:31:37;;;;;;;0.65;0.63;;;22.80;77.10;;;;;;5023850;28;20068;-75
2023/08/11 01:34:03;;;;;;;1.92;1.00;;;22.80;77.10;;;;;;5028050;28;20056;-75
2023/08/11 01:36:28;;;;;;;1.13;0.75;;;22.80;77.10;;;;;;5025335;28;20046;-75
2023/08/11 01:38:54;;;;;;;0.65;0.60;;;22.80;77.10;;;;;;5023607;28;20053;-75
2023/08/11 01:41:20;;;;;;;1.35;0.88;;;22.80;77.10;;;;;;5005454;28;20542;-75
2023/08/11 01:43:46;;;;;;;1.00;0.90;;;22.80;77.10;;;;;;5004483;28;20089;-75
2023/08/11 01:46:11;;;;;;;0.95;0.95;;;22.80;77.10;;;;;;5009213;28;20546;-75
2023/08/11 01:48:37;;;;;;;1.23;0.90;;;22.80;77.10;;;;;;5024874;28;20053;-75
2023/08/11 01:51:02;;;;;;;1.65;0.80;;;22.80;77.80;;;;;;5009468;28;20041;-76
2023/08/11 01:53:28;;;;;;;0.80;0.70;;;22.80;77.00;;;;;;5023131;28;20518;-76
2023/08/11 01:55:54;;;;;;;0.75;0.70;;;22.80;77.80;;;;;;5024832;28;20395;-75
2023/08/11 01:58:20;;;;;;;1.30;0.90;;;22.80;77.10;;;;;;5007710;28;20044;-75
2023/08/11 02:00:46;;;;;;;0.77;0.75;;;22.80;77.10;;;;;;5024303;28;20423;-75
2023/08/11 02:03:12;;;;;;;1.13;0.80;;;22.80;77.00;;;;;;5022139;28;20034;-75
2023/08/11 02:05:38;;;;;;;1.23;0.80;;;22.80;77.00;;;;;;5025321;28;20034;-75
2023/08/11 02:08:04;;;;;;;0.93;0.77;;;22.80;77.00;;;;;;5024242;28;20041;-75
2023/08/11 02:10:30;;;;;;;1.20;0.77;;;22.80;77.00;;;;;;5021611;28;20075;-75
2023/08/11 02:12:55;;;;;;;1.77;1.00;;;22.80;77.00;;;;;;5025189;28;20038;-75
2023/08/11 02:15:21;;;;;;;1.25;1.10;;;22.80;77.00;;;;;;5026612;28;20090;-75
2023/08/11 02:17:46;;;;;;;0.90;0.80;;;22.80;77.10;;;;;;5038759;28;20053;-75
2023/08/11 02:20:21;;;;;;;1.10;0.80;;;22.80;77.00;;;;;;5025307;28;20387;-75
2023/08/11 02:22:47;;;;;;;0.73;0.73;;;22.80;77.10;;;;;;5019698;28;20047;-75
2023/08/11 02:25:13;;;;;;;0.80;0.75;;;22.80;77.00;;;;;;5026027;28;20029;-75
2023/08/11 02:27:39;;;;;;;0.60;0.60;;;22.80;77.00;;;;;;5022477;28;20103;-75
2023/08/11 02:30:06;;;;;;;0.90;0.90;;;22.80;77.10;;;;;;5025045;28;20038;-75
2023/08/11 02:32:32;;;;;;;0.77;0.73;;;22.80;77.00;;;;;;5023467;28;20380;-76
2023/08/11 02:34:57;;;;;;;0.98;0.80;;;22.80;77.00;;;;;;5004959;28;20099;-75
2023/08/11 02:37:23;;;;;;;1.10;0.55;;;22.80;77.00;;;;;;5023363;28;20052;-75
2023/08/11 02:39:49;;;;;;;0.88;0.70;;;22.70;76.90;;;;;;5023430;28;20132;-75
2023/08/11 02:42:14;;;;;;;0.60;0.50;;;22.80;77.00;;;;;;5024363;28;20045;-75
2023/08/11 02:44:40;;;;;;;1.17;1.02;;;22.80;77.00;;;;;;5025085;28;20045;-75
2023/08/11 02:47:06;;;;;;;0.98;0.82;;;22.80;77.00;;;;;;5024903;28;20732;-75
2023/08/11 02:49:32;;;;;;;1.13;0.77;;;22.80;77.00;;;;;;5022986;28;20049;-75
2023/08/11 02:51:58;;;;;;;0.70;0.70;;;22.80;77.00;;;;;;5024160;28;20491;-75
2023/08/11 02:54:23;;;;;;;1.15;0.60;;;22.70;77.00;;;;;;5026024;28;20098;-75
2023/08/11 02:56:49;;;;;;;1.30;0.82;;;22.80;77.10;;;;;;5025389;28;20032;-75
2023/08/11 02:59:14;;;;;;;0.80;0.80;;;22.70;77.00;;;;;;5022680;28;20050;-75
2023/08/11 03:01:40;;;;;;;0.88;0.70;;;22.80;77.00;;;;;;5021769;28;20044;-75
2023/08/11 03:04:06;;;;;;;0.68;0.60;;;22.70;77.00;;;;;;5023382;28;20056;-75
2023/08/11 03:06:32;;;;;;;0.90;0.63;;;22.80;77.80;;;;;;5023808;28;20073;-75
2023/08/11 03:08:57;;;;;;;0.65;0.65;;;22.70;77.00;;;;;;5009508;28;20033;-75
2023/08/11 03:11:23;;;;;;;1.88;1.00;;;22.80;77.10;;;;;;5023385;28;20053;-76
2023/08/11 03:13:48;;;;;;;1.08;0.70;;;22.80;77.10;;;;;;5024643;28;20049;-75
2023/08/11 03:16:14;;;;;;;0.85;0.82;;;22.70;77.00;;;;;;5021522;28;20258;-75
2023/08/11 03:18:40;;;;;;;1.33;0.82;;;22.70;77.00;;;;;;5019518;28;20055;-75
2023/08/11 03:21:07;;;;;;;1.05;0.77;;;22.70;77.00;;;;;;5025712;28;20045;-75
2023/08/11 03:23:34;;;;;;;0.82;0.70;;;22.70;76.90;;;;;;5024789;28;20050;-75
2023/08/11 03:25:59;;;;;;;0.70;0.60;;;22.70;77.00;;;;;;5007565;28;20046;-75
2023/08/11 03:28:25;;;;;;;0.70;0.70;;;22.80;77.10;;;;;;5024137;28;20057;-75
2023/08/11 03:30:51;;;;;;;0.70;0.70;;;22.70;77.00;;;;;;5024050;28;20084;-75
2023/08/11 03:33:17;;;;;;;1.00;0.77;;;22.80;77.10;;;;;;5023563;28;20046;-75
2023/08/11 03:35:42;;;;;;;0.65;0.65;;;22.70;77.00;;;;;;5023907;28;20045;-75
2023/08/11 03:38:08;;;;;;;0.68;0.60;;;22.80;77.10;;;;;;5021486;28;20519;-75
2023/08/11 03:40:33;;;;;;;0.73;0.73;;;22.70;77.10;;;;;;5022170;28;20038;-75
2023/08/11 03:42:59;;;;;;;1.00;0.60;;;22.70;77.10;;;;;;5007117;28;20052;-75
2023/08/11 03:45:24;;;;;;;0.80;0.80;;;22.70;77.10;;;;;;5024763;28;20530;-75
2023/08/11 03:47:50;;;;;;;0.73;0.60;;;22.70;77.10;;;;;;5018929;28;20423;-75
2023/08/11 03:50:16;;;;;;;1.33;1.23;;;22.70;77.10;;;;;;5022376;28;20057;-75
2023/08/11 03:52:41;;;;;;;1.05;0.60;;;22.70;77.10;;;;;;5022963;28;20405;-75
2023/08/11 03:55:09;;;;;;;0.68;0.68;;;22.70;77.10;;;;;;5023374;28;20113;-75
2023/08/11 03:57:36;;;;;;;0.90;0.80;;;22.70;77.10;;;;;;5023168;28;20054;-75
2023/08/11 04:00:09;;;;;;;0.93;0.68;;;22.70;77.10;;;;;;5023635;28;20038;-75
2023/08/11 04:02:34;;;;;;;0.60;0.60;;;22.70;77.10;;;;;;5023767;28;20108;-76
2023/08/11 04:05:00;;;;;;;1.30;0.60;;;22.80;77.20;;;;;;5023177;28;20795;-75
2023/08/11 04:07:27;;;;;;;1.48;0.80;;;22.70;77.10;;;;;;5022602;28;20171;-75
2023/08/11 04:09:52;;;;;;;0.60;0.55;;;22.70;77.10;;;;;;5023442;28;20046;-75
2023/08/11 04:12:18;;;;;;;2.13;0.88;;;22.70;77.10;;;;;;5007624;28;20053;-75
2023/08/11 04:14:43;;;;;;;0.77;0.75;;;22.70;77.10;;;;;;5023071;28;20042;-75
2023/08/11 04:17:13;;;;;;;0.80;0.60;;;22.70;77.10;;;;;;5023033;28;20120;-75
2023/08/11 04:19:39;;;;;;;0.60;0.60;;;22.70;77.10;;;;;;5019776;28;20072;-75
2023/08/11 04:22:05;;;;;;;0.73;0.52;;;22.70;77.10;;;;;;5027324;28;20126;-75
2023/08/11 04:24:31;;;;;;;2.55;0.70;;;22.70;77.10;;;;;;5010330;28;20081;-75
2023/08/11 04:26:56;;;;;;;0.60;0.60;;;22.70;77.10;;;;;;5029523;28;20517;-75
2023/08/11 04:29:22;;;;;;;0.60;0.43;;;22.70;77.10;;;;;;5023801;28;20042;-75
2023/08/11 04:31:47;;;;;;;1.20;0.70;;;22.70;77.10;;;;;;5025801;28;20056;-75
2023/08/11 04:34:15;;;;;;;0.65;0.65;;;22.70;77.10;;;;;;5026186;28;20041;-74
2023/08/11 04:36:41;;;;;;;1.13;0.60;;;22.70;77.10;;;;;;5026046;28;20029;-75
2023/08/11 04:39:06;;;;;;;0.98;0.55;;;22.70;77.10;;;;;;5020919;28;20034;-75
2023/08/11 04:41:32;;;;;;;0.40;0.40;;;22.70;77.20;;;;;;5035785;28;20045;-75
2023/08/11 04:43:57;;;;;;;0.60;0.50;;;22.70;77.20;;;;;;5025684;28;20033;-75
2023/08/11 04:46:24;;;;;;;0.82;0.65;;;22.70;77.30;;;;;;5023556;28;20026;-75
2023/08/11 04:48:49;;;;;;;0.60;0.40;;;22.70;77.10;;;;;;5024317;28;20040;-75
2023/08/11 04:51:15;;;;;;;0.60;0.50;;;22.70;77.10;;;;;;5024984;28;20419;-75
2023/08/11 04:53:41;;;;;;;0.60;0.60;;;22.70;77.20;;;;;;5025293;28;20051;-75
2023/08/11 04:56:06;;;;;;;0.82;0.68;;;22.70;77.10;;;;;;5021500;28;20514;-75
2023/08/11 04:58:35;;;;;;;2.05;0.60;;;22.70;77.10;;;;;;5024747;28;20506;-75
2023/08/11 05:01:03;;;;;;;0.63;0.60;;;22.70;77.10;;;;;;5026137;28;20495;-75
2023/08/11 05:03:29;;;;;;;0.60;0.60;;;22.70;77.00;;;;;;5026611;28;20034;-75
2023/08/11 05:05:55;;;;;;;1.58;0.70;;;22.70;77.10;;;;;;5025970;28;20522;-75
2023/08/11 05:08:21;;;;;;;0.57;0.50;;;22.70;77.00;;;;;;5025353;28;20514;-75
2023/08/11 05:10:46;;;;;;;0.60;0.60;;;22.70;77.10;;;;;;5024623;28;20037;-75
2023/08/11 05:13:12;;;;;;;0.70;0.70;;;22.70;77.10;;;;;;5025809;28;20038;-75
2023/08/11 05:15:38;;;;;;;0.82;0.50;;;22.70;77.00;;;;;;5023740;28;20064;-75
2023/08/11 05:18:04;;;;;;;0.60;0.50;;;22.70;77.10;;;;;;5025684;28;20369;-75
2023/08/11 05:20:30;;;;;;;0.63;0.63;;;22.70;77.10;;;;;;5025338;28;20053;-75
2023/08/11 05:22:56;;;;;;;0.50;0.50;;;22.70;77.20;;;;;;5020803;28;20386;-75
2023/08/11 05:25:21;;;;;;;0.70;0.70;;;22.70;77.10;;;;;;5025090;28;20499;-75
2023/08/11 05:27:47;;;;;;;2.15;0.60;;;22.70;77.10;;;;;;5006654;28;20033;-76
2023/08/11 05:30:13;;;;;;;1.48;0.50;;;22.80;77.20;;;;;;5023694;28;20584;-75
2023/08/11 05:32:39;;;;;;;1.33;1.00;;;22.80;76.90;;;;;;5022041;28;20057;-77
2023/08/11 05:35:05;;;;;;;1.63;1.20;;;22.80;76.70;;;;;;5020575;28;20077;-75
2023/08/11 05:37:32;;;;;;;2.67;1.13;;;22.80;77.80;;;;;;5023024;28;20038;-75
2023/08/11 05:39:57;;;;;;;1.70;1.35;;;22.70;78.50;;;;;;5026312;28;20492;-78
2023/08/11 05:42:23;;;;;;;2.70;1.02;;;22.80;79.00;;;;;;5025398;28;20049;-76
2023/08/11 05:44:49;;;;;;;1.17;0.85;;;22.70;79.20;;;;;;5006353;28;20060;-74
2023/08/11 05:47:15;;;;;;;2.08;1.50;;;22.70;79.20;;;;;;5024837;28;20041;-75
2023/08/11 05:49:40;;;;;;;1.77;1.08;;;22.70;79.60;;;;;;5023604;28;20533;-74
2023/08/11 05:52:06;;;;;;;2.03;1.23;;;22.70;79.60;;;;;;5023136;28;20045;-74
2023/08/11 05:54:31;;;;;;;2.90;1.20;;;22.70;80.00;;;;;;5022697;28;20111;-76
2023/08/11 05:56:57;;;;;;;2.63;1.25;;;22.70;80.40;;;;;;5024428;28;20191;-75
2023/08/11 05:59:23;;;;;;;2.60;1.42;;;22.70;80.40;;;;;;5025596;28;20045;-75
2023/08/11 06:01:49;;;;;;;3.30;1.10;;;22.70;80.80;;;;;;5008482;28;20044;-75
2023/08/11 06:04:14;;;;;;;1.75;1.15;;;22.70;80.80;;;;;;5024612;28;20029;-75
2023/08/11 06:06:40;;;;;;;1.40;0.75;;;22.70;80.80;;;;;;5021444;28;20523;-76
2023/08/11 06:09:06;;;;;;;1.85;1.25;;;22.70;81.10;;;;;;5021841;28;20064;-76
2023/08/11 06:11:31;;;;;;;2.53;1.42;;;22.60;81.00;;;;;;5027090;28;20046;-75
2023/08/11 06:13:57;;;;;;;2.17;1.13;;;22.70;81.30;;;;;;5005581;28;20407;-75
2023/08/11 06:16:22;;;;;;;1.50;1.00;;;22.70;81.40;;;;;;5024918;28;20185;-76
2023/08/11 06:18:48;;;;;;;2.17;1.10;;;22.70;81.70;;;;;;5022801;28;20507;-75
2023/08/11 06:21:14;;;;;;;1.38;1.08;;;22.70;82.00;;;;;;5023175;28;20045;-75
2023/08/11 06:23:40;;;;;;;2.63;1.10;;;22.70;81.70;;;;;;5025671;28;20046;-75
2023/08/11 06:26:05;;;;;;;2.55;1.50;;;22.70;81.50;;;;;;5022971;28;20507;-75
2023/08/11 06:28:31;;;;;;;1.85;1.05;;;22.70;81.60;;;;;;5019282;28;20072;-76
2023/08/11 06:30:56;;;;;;;2.80;1.40;;;22.70;81.90;;;;;;5035753;28;20172;-75
2023/08/11 06:33:22;;;;;;;2.35;1.55;;;22.70;82.00;;;;;;5022184;28;20048;-76
2023/08/11 06:35:48;;;;;;;2.90;1.88;;;22.60;82.10;;;;;;5022483;28;20040;-75
2023/08/11 06:38:13;;;;;;;2.17;1.55;;;22.60;82.40;;;;;;5024346;28;20034;-76
2023/08/11 06:40:39;;;;;;;3.03;1.50;;;22.60;82.30;;;;;;5017209;28;20452;-75
2023/08/11 06:43:06;;;;;;;2.83;1.40;;;22.70;82.80;;;;;;5021004;28;20060;-75
2023/08/11 06:45:32;;;;;;;2.92;1.42;;;22.60;82.40;;;;;;5024563;28;20427;-75
2023/08/11 06:47:58;;;;;;;1.98;1.15;;;22.70;82.90;;;;;;5022790;28;20075;-75
2023/08/11 06:50:23;;;;;;;2.45;1.70;;;22.60;82.60;;;;;;5022850;28;20034;-75
2023/08/11 06:52:49;;;;;;;4.97;1.90;;;22.70;82.60;;;;;;5021674;28;20521;-79
2023/08/11 06:55:14;;;;;;;5.40;1.45;;;22.70;82.60;;;;;;5024175;28;20045;-77
2023/08/11 06:57:40;;;;;;;2.13;1.23;;;22.80;82.30;;;;;;5018114;28;21726;-78
2023/08/11 07:00:07;;;;;;;3.00;1.48;;;22.80;82.10;;;;;;5021898;28;20049;-77
2023/08/11 07:02:33;;;;;;;3.42;1.35;;;22.80;82.00;;;;;;5024657;28;20072;-78
2023/08/11 07:04:59;;;;;;;3.88;1.50;;;22.80;82.40;;;;;;5020111;28;20119;-77
2023/08/11 07:07:25;;;;;;;2.72;1.40;;;22.80;82.00;;;;;;5008103;28;20033;-78
2023/08/11 07:09:51;;;;;;;3.58;1.58;;;22.80;82.30;;;;;;5022875;28;20711;-77
2023/08/11 07:12:16;;;;;;;7.72;1.77;;;22.80;82.90;;;;;;5024712;28;20128;-78
2023/08/11 07:14:45;;;;;;;2.60;1.30;;;22.80;81.90;;;;;;5024524;28;20653;-78
2023/08/11 07:17:10;;;;;;;2.08;1.30;;;22.80;81.80;;;;;;5014869;28;20045;-77
2023/08/11 07:19:36;;;;;;;3.78;1.55;;;22.80;81.70;;;;;;5023479;28;20043;-77
2023/08/11 07:22:02;;;;;;;2.08;1.15;;;22.80;81.50;;;;;;5027255;28;20408;-78
2023/08/11 07:24:27;;;;;;;3.28;1.40;;;22.80;81.30;;;;;;5028511;28;20053;-77
2023/08/11 07:26:53;;;;;;;1.08;0.98;;;22.80;81.20;;;;;;5025787;28;20037;-78
2023/08/11 07:29:18;;;;;;;1.85;0.98;;;22.80;81.20;;;;;;5024344;28;20045;-78
2023/08/11 07:31:44;;;;;;;1.90;1.38;;;22.70;81.10;;;;;;4989959;28;20055;-77
2023/08/11 07:34:10;;;;;;;1.95;1.40;;;22.80;81.00;;;;;;5024574;28;20523;-77
2023/08/11 07:36:36;;;;;;;3.58;1.35;;;22.80;81.00;;;;;;5022408;28;20046;-77
2023/08/11 07:39:01;;;;;;;2.08;1.10;;;22.80;81.70;;;;;;5022196;28;20045;-78
2023/08/11 07:41:27;;;;;;;2.45;1.30;;;22.80;80.80;;;;;;5025451;28;21476;-77
2023/08/11 07:43:52;;;;;;;2.90;1.70;;;22.80;80.80;;;;;;5023602;28;20087;-78
2023/08/11 07:46:18;;;;;;;1.85;1.15;;;22.80;81.50;;;;;;5025247;28;20049;-78
2023/08/11 07:48:43;;;;;;;2.58;1.60;;;22.80;80.70;;;;;;5004307;28;20065;-78
2023/08/11 07:51:09;;;;;;;2.92;1.23;;;22.80;80.60;;;;;;5022840;28;20053;-78
2023/08/11 07:53:36;;;;;;;1.90;1.25;;;22.80;80.50;;;;;;5022718;28;20045;-77
2023/08/11 07:56:02;;;;;;;2.03;1.50;;;22.80;80.50;;;;;;5010536;28;20128;-78
2023/08/11 07:58:27;;;;;;;2.00;1.35;;;22.80;80.40;;;;;;5028345;28;20132;-77
2023/08/11 08:00:53;;;;;;;1.80;1.40;;;22.80;80.20;;;;;;5008538;28;20118;-78
2023/08/11 08:03:18;;;;;;;1.10;1.00;;;22.80;81.00;;;;;;5028361;28;20037;-78
2023/08/11 08:05:44;;;;;;;1.20;1.02;;;22.80;80.20;;;;;;5026940;28;20411;-78
2023/08/11 08:08:09;;;;;;;1.58;1.48;;;22.80;80.20;;;;;;5025202;28;20041;-78
2023/08/11 08:10:35;;;;;;;1.85;1.40;;;22.80;80.10;;;;;;5026791;28;20107;-77
2023/08/11 08:13:01;;;;;;;2.97;1.23;;;22.80;80.00;;;;;;5025683;28;20396;-78
2023/08/11 08:15:28;;;;;;;1.42;1.13;;;22.80;80.00;;;;;;5028439;28;20045;-78
2023/08/11 08:17:53;;;;;;;1.77;1.08;;;22.80;79.90;;;;;;5027825;28;20112;-77
2023/08/11 08:20:19;;;;;;;1.33;1.10;;;22.80;79.90;;;;;;5024505;28;20128;-77
2023/08/11 08:22:46;;;;;;;2.03;0.93;;;22.80;79.80;;;;;;5027365;28;20506;-77
2023/08/11 08:25:12;;;;;;;1.30;1.20;;;22.80;79.80;;;;;;5024773;28;20037;-78
2023/08/11 08:27:39;;;;;;;1.30;0.85;;;22.80;79.80;;;;;;5026956;28;20049;-78
2023/08/11 08:30:09;;;;;;;3.60;0.95;;;22.80;79.70;;;;;;5008723;28;20037;-78
2023/08/11 08:32:36;;;;;;;1.48;1.08;;;22.80;79.70;;;;;;5027635;28;20466;-77
2023/08/11 08:35:02;;;;;;;1.52;1.02;;;22.80;79.70;;;;;;5025981;28;20107;-78
2023/08/11 08:37:28;;;;;;;1.30;1.00;;;22.80;79.60;;;;;;5023047;28;20053;-78
2023/08/11 08:39:54;;;;;;;1.50;1.10;;;22.80;79.60;;;;;;5026607;28;20041;-78
2023/08/11 08:42:21;;;;;;;1.02;0.93;;;22.80;79.50;;;;;;5028852;28;20491;-78
2023/08/11 08:44:50;;;;;;;2.40;1.50;;;22.80;79.50;;;;;;5027705;28;20069;-78
2023/08/11 08:47:18;;;;;;;2.35;1.30;;;22.80;79.40;;;;;;5027036;28;20042;-78
2023/08/11 08:49:43;;;;;;;1.85;1.33;;;22.80;79.40;;;;;;5009775;28;20044;-78
2023/08/11 08:52:09;;;;;;;1.05;0.95;;;22.80;79.40;;;;;;5025845;28;20053;-78
2023/08/11 08:54:34;;;;;;;2.95;1.40;;;22.80;79.30;;;;;;5011021;28;20510;-77
2023/08/11 08:57:01;;;;;;;1.67;1.00;;;22.80;79.40;;;;;;5028115;28;20041;-78
2023/08/11 08:59:26;;;;;;;1.27;0.90;;;22.80;79.30;;;;;;5026448;28;20101;-78
2023/08/11 09:01:53;;;;;;;0.80;0.80;;;22.80;79.40;;;;;;5026656;28;20029;-78
2023/08/11 09:04:19;;;;;;;1.00;0.90;;;22.80;79.30;;;;;;5026869;28;20053;-78
2023/08/11 09:06:45;;;;;;;1.40;1.00;;;22.80;79.30;;;;;;5025727;28;20041;-77
2023/08/11 09:09:12;;;;;;;1.10;1.00;;;22.80;79.30;;;;;;5007647;28;20049;-78
2023/08/11 09:11:38;;;;;;;1.33;1.10;;;22.80;79.30;;;;;;5027552;28;20068;-78
2023/08/11 09:14:05;;;;;;;1.13;0.70;;;22.80;79.30;;;;;;5024506;28;20069;-78
2023/08/11 09:16:33;;;;;;;1.00;0.70;;;22.80;79.20;;;;;;5026986;28;20045;-78
2023/08/11 09:18:59;;;;;;;0.88;0.88;;;22.80;80.10;;;;;;5025992;28;20069;-78
2023/08/11 09:21:24;;;;;;;0.73;0.73;;;22.80;79.10;;;;;;5026811;28;20128;-78
2023/08/11 09:23:52;;;;;;;1.15;1.05;;;22.80;79.10;;;;;;5026293;28;20405;-78
2023/08/11 09:26:20;;;;;;;1.10;0.70;;;22.80;79.10;;;;;;5025888;28;20051;-78
2023/08/11 09:28:46;;;;;;;1.00;0.90;;;22.80;79.20;;;;;;5026584;28;20033;-78
2023/08/11 09:31:12;;;;;;;0.68;0.68;;;22.80;79.10;;;;;;5026103;28;20129;-78
2023/08/11 09:33:38;;;;;;;0.80;0.80;;;22.80;79.10;;;;;;5023491;28;20049;-78
2023/08/11 09:36:04;;;;;;;0.85;0.85;;;22.80;79.10;;;;;;5026720;28;20040;-78
2023/08/11 09:38:29;;;;;;;0.60;0.50;;;22.80;79.10;;;;;;5024915;28;20045;-78
2023/08/11 09:41:07;;;;;;;1.08;0.80;;;22.80;79.10;;;;;;5025672;28;20121;-78
2023/08/11 09:43:32;;;;;;;1.33;0.70;;;22.80;79.00;;;;;;5026191;28;20100;-78
2023/08/11 09:45:59;;;;;;;0.80;0.80;;;22.80;79.00;;;;;;5024288;28;20042;-77
2023/08/11 09:48:27;;;;;;;1.08;0.80;;;22.80;79.00;;;;;;5026826;28;20133;-78
2023/08/11 09:50:53;;;;;;;0.70;0.70;;;22.80;79.00;;;;;;5024357;28;20029;-77
2023/08/11 09:53:20;;;;;;;0.82;0.70;;;22.80;79.00;;;;;;5009373;28;20052;-78
2023/08/11 09:55:46;;;;;;;0.82;0.82;;;22.80;79.00;;;;;;5025300;28;20077;-78
2023/08/11 09:58:12;;;;;;;0.75;0.70;;;22.80;79.00;;;;;;5026278;28;20056;-78
2023/08/11 10:00:37;;;;;;;0.68;0.63;;;22.80;78.90;;;;;;5024684;28;20091;-78
2023/08/11 10:03:09;;;;;;;1.35;0.82;;;22.80;79.00;;;;;;5025162;28;20519;-77
2023/08/11 10:05:37;;;;;;;1.30;0.90;;;22.80;79.00;;;;;;5024083;28;20128;-78
2023/08/11 10:08:03;;;;;;;0.90;0.80;;;22.80;79.00;;;;;;5008489;28;20061;-77
2023/08/11 10:10:29;;;;;;;1.02;0.88;;;22.80;78.80;;;;;;5025800;28;20045;-77
2023/08/11 10:13:06;;;;;;;0.68;0.68;;;22.80;78.90;;;;;;5007138;28;20095;-77
2023/08/11 10:15:32;;;;;;;0.80;0.80;;;22.80;79.00;;;;;;5019637;28;20065;-77
2023/08/11 10:17:57;;;;;;;0.77;0.77;;;22.80;78.90;;;;;;5023790;28;20502;-77
2023/08/11 10:20:23;;;;;;;2.22;0.90;;;22.80;78.90;;;;;;5026580;28;20042;-78
2023/08/11 10:22:49;;;;;;;0.60;0.60;;;22.80;78.80;;;;;;5006838;28;20045;-78
2023/08/11 10:25:15;;;;;;;0.75;0.75;;;22.80;78.90;;;;;;5022798;28;20029;-77
2023/08/11 10:27:40;;;;;;;0.80;0.70;;;22.80;78.70;;;;;;5039991;28;20045;-77
2023/08/11 10:30:07;;;;;;;0.63;0.63;;;22.80;78.80;;;;;;5024266;28;20467;-78
2023/08/11 10:32:33;;;;;;;0.90;0.80;;;22.80;78.70;;;;;;5026218;28;20045;-78
2023/08/11 10:34:58;;;;;;;0.70;0.70;;;22.80;78.70;;;;;;5024179;28;20040;-77
2023/08/11 10:37:29;;;;;;;1.13;0.80;;;22.80;79.40;;;;;;5008312;28;20507;-77
2023/08/11 10:40:05;;;;;;;0.60;0.60;;;22.80;78.60;;;;;;5025364;28;20072;-77
2023/08/11 10:42:30;;;;;;;0.73;0.63;;;22.80;78.70;;;;;;5023807;28;20446;-78
2023/08/11 10:45:09;;;;;;;0.57;0.47;;;22.80;78.60;;;;;;5025541;28;20045;-77
2023/08/11 10:47:41;;;;;;;0.52;0.47;;;22.80;78.70;;;;;;5026183;28;20045;-77
2023/08/11 10:50:09;;;;;;;0.85;0.60;;;22.80;78.60;;;;;;5006658;28;20068;-78
2023/08/11 10:52:35;;;;;;;0.60;0.60;;;22.80;78.60;;;;;;5026456;28;20472;-77
2023/08/11 10:55:04;;;;;;;0.50;0.50;;;22.80;78.70;;;;;;5023565;28;20523;-77
2023/08/11 10:57:33;;;;;;;1.15;0.77;;;22.80;78.70;;;;;;5024261;28;20108;-78
2023/08/11 10:59:59;;;;;;;0.68;0.50;;;22.80;78.60;;;;;;5021616;28;20410;-77
2023/08/11 11:02:25;;;;;;;0.80;0.55;;;22.80;78.60;;;;;;5022361;28;20141;-78
2023/08/11 11:04:51;;;;;;;0.63;0.63;;;22.80;78.70;;;;;;5025015;28;20094;-77
2023/08/11 11:07:17;;;;;;;0.68;0.68;;;22.80;78.70;;;;;;5021038;28;20065;-77
2023/08/11 11:09:42;;;;;;;0.68;0.68;;;22.80;78.60;;;;;;5023800;28;20049;-77
2023/08/11 11:12:08;;;;;;;0.68;0.57;;;22.80;78.60;;;;;;5024468;28;20581;-77
2023/08/11 11:14:36;;;;;;;0.60;0.57;;;22.80;78.60;;;;;;5025643;28;20128;-77
2023/08/11 11:17:03;;;;;;;0.65;0.65;;;22.80;78.60;;;;;;5023375;28;20050;-77
2023/08/11 11:19:29;;;;;;;0.77;0.50;;;22.80;78.60;;;;;;5022030;28;20053;-78
2023/08/11 11:21:55;;;;;;;0.43;0.40;;;22.80;78.60;;;;;;5024679;28;20068;-77
2023/08/11 11:24:20;;;;;;;0.60;0.60;;;22.80;78.60;;;;;;5022985;28;20933;-77
2023/08/11 11:26:46;;;;;;;0.65;0.65;;;22.80;78.60;;;;;;5025724;28;20044;-77
2023/08/11 11:29:11;;;;;;;0.60;0.60;;;22.80;78.60;;;;;;5025636;28;20531;-77
2023/08/11 11:31:38;;;;;;;0.60;0.60;;;22.80;78.60;;;;;;5026809;28;20132;-78
2023/08/11 11:34:04;;;;;;;0.82;0.80;;;22.80;78.60;;;;;;5011419;28;20056;-77
2023/08/11 11:36:30;;;;;;;0.70;0.70;;;22.80;78.60;;;;;;5051680;28;20419;-77
2023/08/11 11:38:55;;;;;;;0.47;0.47;;;22.80;78.60;;;;;;5012483;28;20466;-77
2023/08/11 11:41:21;;;;;;;0.50;0.50;;;22.80;78.50;;;;;;5026765;28;20495;-77
2023/08/11 11:43:48;;;;;;;0.65;0.60;;;22.80;78.60;;;;;;4994566;28;20052;-78
2023/08/11 11:46:15;;;;;;;0.40;0.30;;;22.80;78.60;;;;;;5025295;28;20521;-78
2023/08/11 11:48:44;;;;;;;0.38;0.35;;;22.80;78.60;;;;;;5027961;28;20069;-78
2023/08/11 11:51:11;;;;;;;0.60;0.60;;;22.80;78.60;;;;;;5024595;28;20053;-78
2023/08/11 11:53:38;;;;;;;0.60;0.60;;;22.80;78.60;;;;;;5026707;28;20041;-78
2023/08/11 11:56:04;;;;;;;0.47;0.47;;;22.80;78.60;;;;;;5027433;28;20468;-77
2023/08/11 11:58:30;;;;;;;0.50;0.40;;;22.80;78.60;;;;;;5026868;28;20152;-77
2023/08/11 12:00:55;;;;;;;0.70;0.47;;;22.80;78.50;;;;;;5028082;28;20034;-77
2023/08/11 12:03:22;;;;;;;0.60;0.60;;;22.80;78.50;;;;;;5025808;28;20179;-78
2023/08/11 12:05:47;;;;;;;0.50;0.40;;;22.80;78.40;;;;;;5028009;28;20069;-78
2023/08/11 12:08:18;;;;;;;0.60;0.60;;;22.80;78.50;;;;;;5027107;28;20080;-77
2023/08/11 12:10:48;;;;;;;0.30;0.30;;;22.80;78.40;;;;;;5026760;28;20184;-77
2023/08/11 12:13:13;;;;;;;0.35;0.35;;;22.80;78.40;;;;;;5039226;28;20104;-77
2023/08/11 12:15:39;;;;;;;0.40;0.35;;;22.80;78.50;;;;;;5028290;28;20037;-78
2023/08/11 12:18:05;;;;;;;0.50;0.50;;;22.80;78.60;;;;;;5028964;28;20037;-78
2023/08/11 12:20:31;;;;;;;0.43;0.43;;;22.80;78.60;;;;;;5028266;28;20495;-77
2023/08/11 12:22:56;;;;;;;0.50;0.50;;;22.80;78.60;;;;;;5028197;28;20052;-77
2023/08/11 12:25:23;;;;;;;0.50;0.50;;;22.80;78.60;;;;;;5027197;28;20096;-77
2023/08/11 12:27:48;;;;;;;0.55;0.55;;;22.80;78.50;;;;;;5027612;28;20042;-77
2023/08/11 12:30:15;;;;;;;0.70;0.43;;;22.80;78.50;;;;;;5009927;28;20107;-78
2023/08/11 12:32:41;;;;;;;0.70;0.57;;;22.80;78.60;;;;;;5010685;28;20049;-77
2023/08/11 12:35:06;;;;;;;0.63;0.40;;;22.80;79.20;;;;;;5026405;28;20400;-77
2023/08/11 12:37:32;;;;;;;0.50;0.50;;;22.80;78.50;;;;;;5010215;28;20050;-78
2023/08/11 12:39:58;;;;;;;0.47;0.47;;;22.80;78.40;;;;;;5025639;28;20033;-78
2023/08/11 12:42:23;;;;;;;0.40;0.40;;;22.80;78.40;;;;;;5024967;28;24904;-78